sensor_id;sensor_type;location;lat;lon;timestamp;P1;durP1;ratioP1;P2;durP2;ratioP2
65373;SDS011;52070;53.760;9.678;2022-07-04T00:02:16;11.77;;;4.30;;
65373;SDS011;52070;53.760;9.678;2022-07-04T00:04:43;10.05;;;4.55;;
65373;SDS011;52070;53.760;9.678;2022-07-04T00:07:10;8.60;;;4.00;;
65373;SDS011;52070;53.760;9.678;2022-07-04T00:09:39;8.88;;;4.03;;
65373;SDS011;52070;53.760;9.678;2022-07-04T00:12:06;8.80;;;4.43;;
65373;SDS011;52070;53.760;9.678;2022-07-04T00:14:33;8.68;;;4.10;;
65373;SDS011;52070;53.760;9.678;2022-07-04T00:17:00;12.02;;;4.53;;
65373;SDS011;52070;53.760;9.678;2022-07-04T00:19:28;10.32;;;4.20;;
65373;SDS011;52070;53.760;9.678;2022-07-04T00:21:55;9.98;;;4.65;;
65373;SDS011;52070;53.760;9.678;2022-07-04T00:24:22;16.35;;;4.80;;
65373;SDS011;52070;53.760;9.678;2022-07-04T00:26:50;15.20;;;5.75;;
65373;SDS011;52070;53.760;9.678;2022-07-04T00:29:17;10.35;;;5.80;;
65373;SDS011;52070;53.760;9.678;2022-07-04T00:31:44;10.43;;;5.72;;
65373;SDS011;52070;53.760;9.678;2022-07-04T00:34:11;9.90;;;5.45;;
65373;SDS011;52070;53.760;9.678;2022-07-04T00:36:38;12.48;;;5.95;;
65373;SDS011;52070;53.760;9.678;2022-07-04T00:39:05;16.45;;;6.45;;
65373;SDS011;52070;53.760;9.678;2022-07-04T00:41:32;11.38;;;6.10;;
65373;SDS011;52070;53.760;9.678;2022-07-04T00:44:01;15.45;;;7.72;;
65373;SDS011;52070;53.760;9.678;2022-07-04T00:46:29;16.83;;;8.20;;
65373;SDS011;52070;53.760;9.678;2022-07-04T00:48:56;12.77;;;7.72;;
65373;SDS011;52070;53.760;9.678;2022-07-04T00:51:24;10.25;;;7.50;;
65373;SDS011;52070;53.760;9.678;2022-07-04T00:53:52;14.50;;;8.52;;
65373;SDS011;52070;53.760;9.678;2022-07-04T00:56:20;20.20;;;8.18;;
65373;SDS011;52070;53.760;9.678;2022-07-04T00:58:48;16.10;;;7.82;;
65373;SDS011;52070;53.760;9.678;2022-07-04T01:01:17;13.63;;;8.90;;
65373;SDS011;52070;53.760;9.678;2022-07-04T01:03:44;21.80;;;9.00;;
65373;SDS011;52070;53.760;9.678;2022-07-04T01:06:11;17.25;;;8.50;;
65373;SDS011;52070;53.760;9.678;2022-07-04T01:08:40;17.33;;;8.88;;
65373;SDS011;52070;53.760;9.678;2022-07-04T01:11:08;14.63;;;8.55;;
65373;SDS011;52070;53.760;9.678;2022-07-04T01:13:36;15.18;;;7.55;;
65373;SDS011;52070;53.760;9.678;2022-07-04T01:16:03;18.45;;;8.85;;
65373;SDS011;52070;53.760;9.678;2022-07-04T01:18:32;15.98;;;9.43;;
65373;SDS011;52070;53.760;9.678;2022-07-04T01:21:00;14.32;;;8.77;;
65373;SDS011;52070;53.760;9.678;2022-07-04T01:23:27;14.18;;;8.02;;
65373;SDS011;52070;53.760;9.678;2022-07-04T01:25:54;14.82;;;7.72;;
65373;SDS011;52070;53.760;9.678;2022-07-04T01:28:23;10.48;;;6.95;;
65373;SDS011;52070;53.760;9.678;2022-07-04T01:30:50;11.77;;;7.90;;
65373;SDS011;52070;53.760;9.678;2022-07-04T01:33:18;18.10;;;8.50;;
65373;SDS011;52070;53.760;9.678;2022-07-04T01:35:45;17.25;;;8.52;;
65373;SDS011;52070;53.760;9.678;2022-07-04T01:38:14;18.60;;;8.63;;
65373;SDS011;52070;53.760;9.678;2022-07-04T01:40:41;18.75;;;10.25;;
65373;SDS011;52070;53.760;9.678;2022-07-04T01:43:08;12.73;;;8.80;;
65373;SDS011;52070;53.760;9.678;2022-07-04T01:45:35;20.63;;;9.38;;
65373;SDS011;52070;53.760;9.678;2022-07-04T01:48:03;13.57;;;8.25;;
65373;SDS011;52070;53.760;9.678;2022-07-04T01:50:31;14.98;;;10.18;;
65373;SDS011;52070;53.760;9.678;2022-07-04T01:52:58;17.42;;;9.10;;
65373;SDS011;52070;53.760;9.678;2022-07-04T01:55:26;15.50;;;9.27;;
65373;SDS011;52070;53.760;9.678;2022-07-04T01:57:54;14.13;;;8.90;;
65373;SDS011;52070;53.760;9.678;2022-07-04T02:00:23;20.13;;;10.20;;
65373;SDS011;52070;53.760;9.678;2022-07-04T02:03:08;15.10;;;9.77;;
65373;SDS011;52070;53.760;9.678;2022-07-04T02:05:36;18.67;;;11.63;;
65373;SDS011;52070;53.760;9.678;2022-07-04T02:08:03;24.00;;;11.25;;
65373;SDS011;52070;53.760;9.678;2022-07-04T02:10:32;21.05;;;11.13;;
65373;SDS011;52070;53.760;9.678;2022-07-04T02:12:59;15.70;;;10.50;;
65373;SDS011;52070;53.760;9.678;2022-07-04T02:15:28;15.70;;;10.32;;
65373;SDS011;52070;53.760;9.678;2022-07-04T02:17:56;14.05;;;10.32;;
65373;SDS011;52070;53.760;9.678;2022-07-04T02:20:23;20.23;;;11.02;;
65373;SDS011;52070;53.760;9.678;2022-07-04T02:22:50;21.45;;;9.90;;
65373;SDS011;52070;53.760;9.678;2022-07-04T02:25:17;17.23;;;10.38;;
65373;SDS011;52070;53.760;9.678;2022-07-04T02:27:46;15.80;;;10.32;;
65373;SDS011;52070;53.760;9.678;2022-07-04T02:30:13;24.17;;;11.43;;
65373;SDS011;52070;53.760;9.678;2022-07-04T02:32:40;14.73;;;9.88;;
65373;SDS011;52070;53.760;9.678;2022-07-04T02:35:08;17.30;;;10.70;;
65373;SDS011;52070;53.760;9.678;2022-07-04T02:37:35;13.50;;;9.77;;
65373;SDS011;52070;53.760;9.678;2022-07-04T02:40:03;16.05;;;10.00;;
65373;SDS011;52070;53.760;9.678;2022-07-04T02:42:31;18.60;;;11.30;;
65373;SDS011;52070;53.760;9.678;2022-07-04T02:45:00;21.73;;;11.45;;
65373;SDS011;52070;53.760;9.678;2022-07-04T02:47:27;15.90;;;10.80;;
65373;SDS011;52070;53.760;9.678;2022-07-04T02:49:55;19.33;;;10.82;;
65373;SDS011;52070;53.760;9.678;2022-07-04T02:52:22;19.77;;;10.40;;
65373;SDS011;52070;53.760;9.678;2022-07-04T02:54:49;17.58;;;10.32;;
65373;SDS011;52070;53.760;9.678;2022-07-04T02:57:18;21.65;;;10.57;;
65373;SDS011;52070;53.760;9.678;2022-07-04T02:59:45;20.60;;;10.55;;
65373;SDS011;52070;53.760;9.678;2022-07-04T03:02:13;16.50;;;9.70;;
65373;SDS011;52070;53.760;9.678;2022-07-04T03:04:40;20.60;;;10.40;;
65373;SDS011;52070;53.760;9.678;2022-07-04T03:07:07;12.68;;;9.40;;
65373;SDS011;52070;53.760;9.678;2022-07-04T03:09:34;18.63;;;10.02;;
65373;SDS011;52070;53.760;9.678;2022-07-04T03:12:01;16.77;;;8.82;;
65373;SDS011;52070;53.760;9.678;2022-07-04T03:14:28;18.35;;;9.60;;
65373;SDS011;52070;53.760;9.678;2022-07-04T03:16:55;15.50;;;8.50;;
65373;SDS011;52070;53.760;9.678;2022-07-04T03:19:23;24.77;;;8.82;;
65373;SDS011;52070;53.760;9.678;2022-07-04T03:21:50;19.13;;;9.63;;
65373;SDS011;52070;53.760;9.678;2022-07-04T03:24:17;15.38;;;9.35;;
65373;SDS011;52070;53.760;9.678;2022-07-04T03:26:44;13.30;;;8.60;;
65373;SDS011;52070;53.760;9.678;2022-07-04T03:29:11;15.15;;;8.48;;
65373;SDS011;52070;53.760;9.678;2022-07-04T03:31:38;17.10;;;8.65;;
65373;SDS011;52070;53.760;9.678;2022-07-04T03:34:05;15.25;;;8.98;;
65373;SDS011;52070;53.760;9.678;2022-07-04T03:36:33;14.90;;;8.35;;
65373;SDS011;52070;53.760;9.678;2022-07-04T03:39:00;11.35;;;7.57;;
65373;SDS011;52070;53.760;9.678;2022-07-04T03:41:28;15.55;;;8.18;;
65373;SDS011;52070;53.760;9.678;2022-07-04T03:43:55;11.52;;;7.72;;
65373;SDS011;52070;53.760;9.678;2022-07-04T03:46:21;13.40;;;8.57;;
65373;SDS011;52070;53.760;9.678;2022-07-04T03:48:48;13.50;;;8.20;;
65373;SDS011;52070;53.760;9.678;2022-07-04T03:51:15;19.92;;;9.23;;
65373;SDS011;52070;53.760;9.678;2022-07-04T03:53:44;19.60;;;9.20;;
65373;SDS011;52070;53.760;9.678;2022-07-04T03:56:11;17.15;;;8.20;;
65373;SDS011;52070;53.760;9.678;2022-07-04T03:58:38;13.65;;;8.90;;
65373;SDS011;52070;53.760;9.678;2022-07-04T04:01:07;11.73;;;8.23;;
65373;SDS011;52070;53.760;9.678;2022-07-04T04:03:34;16.20;;;9.60;;
65373;SDS011;52070;53.760;9.678;2022-07-04T04:06:19;14.40;;;8.63;;
65373;SDS011;52070;53.760;9.678;2022-07-04T04:08:47;15.93;;;9.40;;
65373;SDS011;52070;53.760;9.678;2022-07-04T04:11:14;13.20;;;8.93;;
65373;SDS011;52070;53.760;9.678;2022-07-04T04:13:41;20.77;;;9.15;;
65373;SDS011;52070;53.760;9.678;2022-07-04T04:16:08;14.80;;;9.38;;
65373;SDS011;52070;53.760;9.678;2022-07-04T04:18:36;14.32;;;9.27;;
65373;SDS011;52070;53.760;9.678;2022-07-04T04:21:03;16.65;;;9.50;;
65373;SDS011;52070;53.760;9.678;2022-07-04T04:23:30;15.32;;;8.93;;
65373;SDS011;52070;53.760;9.678;2022-07-04T04:25:58;13.85;;;8.00;;
65373;SDS011;52070;53.760;9.678;2022-07-04T04:28:25;14.55;;;8.40;;
65373;SDS011;52070;53.760;9.678;2022-07-04T04:30:52;14.77;;;9.10;;
65373;SDS011;52070;53.760;9.678;2022-07-04T04:33:19;14.13;;;9.20;;
65373;SDS011;52070;53.760;9.678;2022-07-04T04:35:46;15.30;;;8.40;;
65373;SDS011;52070;53.760;9.678;2022-07-04T04:38:13;14.30;;;7.75;;
65373;SDS011;52070;53.760;9.678;2022-07-04T04:40:40;15.05;;;7.63;;
65373;SDS011;52070;53.760;9.678;2022-07-04T04:43:08;10.95;;;7.40;;
65373;SDS011;52070;53.760;9.678;2022-07-04T04:45:35;11.35;;;7.25;;
65373;SDS011;52070;53.760;9.678;2022-07-04T04:48:02;13.65;;;7.00;;
65373;SDS011;52070;53.760;9.678;2022-07-04T04:50:29;14.68;;;7.20;;
65373;SDS011;52070;53.760;9.678;2022-07-04T04:52:56;9.50;;;5.78;;
65373;SDS011;52070;53.760;9.678;2022-07-04T04:55:23;12.55;;;6.70;;
65373;SDS011;52070;53.760;9.678;2022-07-04T04:57:51;10.00;;;6.32;;
65373;SDS011;52070;53.760;9.678;2022-07-04T05:00:19;13.43;;;6.28;;
65373;SDS011;52070;53.760;9.678;2022-07-04T05:02:46;13.45;;;5.93;;
65373;SDS011;52070;53.760;9.678;2022-07-04T05:05:13;9.25;;;5.53;;
65373;SDS011;52070;53.760;9.678;2022-07-04T05:07:40;10.77;;;5.93;;
65373;SDS011;52070;53.760;9.678;2022-07-04T05:10:09;9.32;;;5.60;;
65373;SDS011;52070;53.760;9.678;2022-07-04T05:12:36;11.75;;;4.60;;
65373;SDS011;52070;53.760;9.678;2022-07-04T05:15:03;9.75;;;4.43;;
65373;SDS011;52070;53.760;9.678;2022-07-04T05:17:32;9.25;;;4.15;;
65373;SDS011;52070;53.760;9.678;2022-07-04T05:20:02;10.00;;;4.13;;
65373;SDS011;52070;53.760;9.678;2022-07-04T05:22:30;7.95;;;3.47;;
65373;SDS011;52070;53.760;9.678;2022-07-04T05:24:57;8.57;;;3.13;;
65373;SDS011;52070;53.760;9.678;2022-07-04T05:27:25;3.92;;;2.78;;
65373;SDS011;52070;53.760;9.678;2022-07-04T05:29:52;10.27;;;3.42;;
65373;SDS011;52070;53.760;9.678;2022-07-04T05:32:19;7.20;;;3.30;;
65373;SDS011;52070;53.760;9.678;2022-07-04T05:34:49;10.13;;;3.22;;
65373;SDS011;52070;53.760;9.678;2022-07-04T05:37:15;7.22;;;3.22;;
65373;SDS011;52070;53.760;9.678;2022-07-04T05:39:42;7.50;;;3.30;;
65373;SDS011;52070;53.760;9.678;2022-07-04T05:42:10;7.93;;;2.95;;
65373;SDS011;52070;53.760;9.678;2022-07-04T05:44:36;8.68;;;2.83;;
65373;SDS011;52070;53.760;9.678;2022-07-04T05:47:03;8.23;;;2.83;;
65373;SDS011;52070;53.760;9.678;2022-07-04T05:49:30;9.73;;;2.80;;
65373;SDS011;52070;53.760;9.678;2022-07-04T05:51:59;8.25;;;2.80;;
65373;SDS011;52070;53.760;9.678;2022-07-04T05:54:26;9.40;;;2.58;;
65373;SDS011;52070;53.760;9.678;2022-07-04T05:56:52;4.90;;;2.38;;
65373;SDS011;52070;53.760;9.678;2022-07-04T05:59:19;6.10;;;2.53;;
65373;SDS011;52070;53.760;9.678;2022-07-04T06:01:46;8.02;;;2.28;;
65373;SDS011;52070;53.760;9.678;2022-07-04T06:04:13;7.55;;;2.70;;
65373;SDS011;52070;53.760;9.678;2022-07-04T06:06:40;14.93;;;2.85;;
65373;SDS011;52070;53.760;9.678;2022-07-04T06:09:08;10.20;;;2.88;;
65373;SDS011;52070;53.760;9.678;2022-07-04T06:11:35;6.82;;;2.47;;
65373;SDS011;52070;53.760;9.678;2022-07-04T06:14:02;7.68;;;2.90;;
65373;SDS011;52070;53.760;9.678;2022-07-04T06:16:30;10.07;;;2.63;;
65373;SDS011;52070;53.760;9.678;2022-07-04T06:18:56;4.35;;;2.47;;
65373;SDS011;52070;53.760;9.678;2022-07-04T06:21:23;6.10;;;2.42;;
65373;SDS011;52070;53.760;9.678;2022-07-04T06:23:50;7.70;;;2.90;;
65373;SDS011;52070;53.760;9.678;2022-07-04T06:26:19;4.95;;;2.58;;
65373;SDS011;52070;53.760;9.678;2022-07-04T06:28:46;4.53;;;2.55;;
65373;SDS011;52070;53.760;9.678;2022-07-04T06:31:13;8.32;;;2.47;;
65373;SDS011;52070;53.760;9.678;2022-07-04T06:33:40;9.35;;;2.55;;
65373;SDS011;52070;53.760;9.678;2022-07-04T06:36:20;5.95;;;2.15;;
65373;SDS011;52070;53.760;9.678;2022-07-04T06:38:48;8.93;;;2.25;;
65373;SDS011;52070;53.760;9.678;2022-07-04T06:41:15;4.85;;;2.25;;
65373;SDS011;52070;53.760;9.678;2022-07-04T06:43:43;4.72;;;1.90;;
65373;SDS011;52070;53.760;9.678;2022-07-04T06:46:10;6.97;;;2.28;;
65373;SDS011;52070;53.760;9.678;2022-07-04T06:48:38;11.35;;;2.30;;
65373;SDS011;52070;53.760;9.678;2022-07-04T06:51:04;5.72;;;2.00;;
65373;SDS011;52070;53.760;9.678;2022-07-04T06:53:31;7.32;;;2.90;;
65373;SDS011;52070;53.760;9.678;2022-07-04T06:55:58;6.93;;;2.05;;
65373;SDS011;52070;53.760;9.678;2022-07-04T06:58:25;10.43;;;2.10;;
65373;SDS011;52070;53.760;9.678;2022-07-04T07:00:54;4.88;;;1.73;;
65373;SDS011;52070;53.760;9.678;2022-07-04T07:03:20;4.93;;;1.85;;
65373;SDS011;52070;53.760;9.678;2022-07-04T07:05:47;5.50;;;1.80;;
65373;SDS011;52070;53.760;9.678;2022-07-04T07:08:14;4.65;;;1.88;;
65373;SDS011;52070;53.760;9.678;2022-07-04T07:10:41;7.82;;;1.80;;
65373;SDS011;52070;53.760;9.678;2022-07-04T07:13:08;5.20;;;1.90;;
65373;SDS011;52070;53.760;9.678;2022-07-04T07:15:35;3.88;;;1.65;;
65373;SDS011;52070;53.760;9.678;2022-07-04T07:18:04;7.75;;;1.75;;
65373;SDS011;52070;53.760;9.678;2022-07-04T07:20:31;3.97;;;1.60;;
65373;SDS011;52070;53.760;9.678;2022-07-04T07:22:58;6.53;;;1.63;;
65373;SDS011;52070;53.760;9.678;2022-07-04T07:25:28;7.43;;;1.50;;
65373;SDS011;52070;53.760;9.678;2022-07-04T07:27:55;7.95;;;1.50;;
65373;SDS011;52070;53.760;9.678;2022-07-04T07:30:22;6.72;;;1.60;;
65373;SDS011;52070;53.760;9.678;2022-07-04T07:32:49;4.65;;;1.67;;
65373;SDS011;52070;53.760;9.678;2022-07-04T07:35:17;4.57;;;1.70;;
65373;SDS011;52070;53.760;9.678;2022-07-04T07:37:44;8.20;;;1.83;;
65373;SDS011;52070;53.760;9.678;2022-07-04T07:40:11;5.10;;;1.50;;
65373;SDS011;52070;53.760;9.678;2022-07-04T07:42:38;7.22;;;1.85;;
65373;SDS011;52070;53.760;9.678;2022-07-04T07:45:06;5.70;;;1.42;;
65373;SDS011;52070;53.760;9.678;2022-07-04T07:47:34;4.28;;;1.60;;
65373;SDS011;52070;53.760;9.678;2022-07-04T07:50:01;7.68;;;1.40;;
65373;SDS011;52070;53.760;9.678;2022-07-04T07:52:31;5.90;;;1.80;;
65373;SDS011;52070;53.760;9.678;2022-07-04T07:54:58;5.10;;;1.48;;
65373;SDS011;52070;53.760;9.678;2022-07-04T07:57:25;3.45;;;1.10;;
65373;SDS011;52070;53.760;9.678;2022-07-04T07:59:52;5.07;;;1.30;;
65373;SDS011;52070;53.760;9.678;2022-07-04T08:02:18;5.13;;;1.33;;
65373;SDS011;52070;53.760;9.678;2022-07-04T08:05:06;4.00;;;1.20;;
65373;SDS011;52070;53.760;9.678;2022-07-04T08:07:34;4.70;;;1.20;;
65373;SDS011;52070;53.760;9.678;2022-07-04T08:10:01;5.88;;;1.50;;
65373;SDS011;52070;53.760;9.678;2022-07-04T08:12:28;3.58;;;1.33;;
65373;SDS011;52070;53.760;9.678;2022-07-04T08:14:55;6.85;;;1.30;;
65373;SDS011;52070;53.760;9.678;2022-07-04T08:17:22;7.90;;;1.63;;
65373;SDS011;52070;53.760;9.678;2022-07-04T08:19:49;3.28;;;1.10;;
65373;SDS011;52070;53.760;9.678;2022-07-04T08:22:16;2.55;;;1.08;;
65373;SDS011;52070;53.760;9.678;2022-07-04T08:24:45;3.60;;;1.02;;
65373;SDS011;52070;53.760;9.678;2022-07-04T08:27:13;5.82;;;1.20;;
65373;SDS011;52070;53.760;9.678;2022-07-04T08:29:40;3.15;;;1.10;;
65373;SDS011;52070;53.760;9.678;2022-07-04T08:32:07;5.78;;;1.20;;
65373;SDS011;52070;53.760;9.678;2022-07-04T08:34:34;6.72;;;1.17;;
65373;SDS011;52070;53.760;9.678;2022-07-04T08:37:02;3.70;;;1.10;;
65373;SDS011;52070;53.760;9.678;2022-07-04T08:39:29;4.35;;;1.00;;
65373;SDS011;52070;53.760;9.678;2022-07-04T08:41:59;3.22;;;1.02;;
65373;SDS011;52070;53.760;9.678;2022-07-04T08:44:28;4.40;;;1.20;;
65373;SDS011;52070;53.760;9.678;2022-07-04T08:46:56;1.73;;;0.70;;
65373;SDS011;52070;53.760;9.678;2022-07-04T08:49:25;2.75;;;1.00;;
65373;SDS011;52070;53.760;9.678;2022-07-04T08:51:58;2.20;;;1.00;;
65373;SDS011;52070;53.760;9.678;2022-07-04T08:54:26;4.65;;;1.00;;
65373;SDS011;52070;53.760;9.678;2022-07-04T08:57:15;1.33;;;0.80;;
65373;SDS011;52070;53.760;9.678;2022-07-04T09:00:00;1.70;;;1.00;;
65373;SDS011;52070;53.760;9.678;2022-07-04T09:02:28;2.78;;;0.80;;
65373;SDS011;52070;53.760;9.678;2022-07-04T09:04:55;1.38;;;0.90;;
65373;SDS011;52070;53.760;9.678;2022-07-04T09:07:22;2.58;;;1.00;;
65373;SDS011;52070;53.760;9.678;2022-07-04T09:09:49;1.92;;;1.10;;
65373;SDS011;52070;53.760;9.678;2022-07-04T09:12:18;3.25;;;1.00;;
65373;SDS011;52070;53.760;9.678;2022-07-04T09:14:45;3.33;;;1.13;;
65373;SDS011;52070;53.760;9.678;2022-07-04T09:17:12;4.45;;;1.00;;
65373;SDS011;52070;53.760;9.678;2022-07-04T09:19:39;3.42;;;1.00;;
65373;SDS011;52070;53.760;9.678;2022-07-04T09:22:07;4.03;;;1.00;;
65373;SDS011;52070;53.760;9.678;2022-07-04T09:24:46;4.13;;;0.98;;
65373;SDS011;52070;53.760;9.678;2022-07-04T09:27:32;2.03;;;0.98;;
65373;SDS011;52070;53.760;9.678;2022-07-04T09:30:01;3.58;;;1.30;;
65373;SDS011;52070;53.760;9.678;2022-07-04T09:32:35;5.20;;;0.95;;
65373;SDS011;52070;53.760;9.678;2022-07-04T09:35:03;2.20;;;1.27;;
65373;SDS011;52070;53.760;9.678;2022-07-04T09:37:35;1.38;;;0.77;;
65373;SDS011;52070;53.760;9.678;2022-07-04T09:40:03;3.38;;;0.90;;
65373;SDS011;52070;53.760;9.678;2022-07-04T09:42:37;1.38;;;0.70;;
65373;SDS011;52070;53.760;9.678;2022-07-04T09:45:05;2.63;;;0.93;;
65373;SDS011;52070;53.760;9.678;2022-07-04T09:47:34;2.42;;;0.85;;
65373;SDS011;52070;53.760;9.678;2022-07-04T09:50:02;4.13;;;0.88;;
65373;SDS011;52070;53.760;9.678;2022-07-04T09:52:31;2.17;;;0.68;;
65373;SDS011;52070;53.760;9.678;2022-07-04T09:54:59;3.95;;;0.90;;
65373;SDS011;52070;53.760;9.678;2022-07-04T09:57:28;1.77;;;0.60;;
65373;SDS011;52070;53.760;9.678;2022-07-04T09:59:57;2.17;;;0.90;;
65373;SDS011;52070;53.760;9.678;2022-07-04T10:02:42;3.75;;;0.90;;
65373;SDS011;52070;53.760;9.678;2022-07-04T10:05:09;2.53;;;0.90;;
65373;SDS011;52070;53.760;9.678;2022-07-04T10:07:37;2.35;;;0.70;;
65373;SDS011;52070;53.760;9.678;2022-07-04T10:10:21;2.35;;;0.93;;
65373;SDS011;52070;53.760;9.678;2022-07-04T10:12:54;4.45;;;0.88;;
65373;SDS011;52070;53.760;9.678;2022-07-04T10:15:23;3.05;;;0.90;;
65373;SDS011;52070;53.760;9.678;2022-07-04T10:17:50;1.52;;;0.63;;
65373;SDS011;52070;53.760;9.678;2022-07-04T10:20:18;3.40;;;1.00;;
65373;SDS011;52070;53.760;9.678;2022-07-04T10:22:45;3.70;;;0.90;;
65373;SDS011;52070;53.760;9.678;2022-07-04T10:25:12;3.65;;;0.73;;
65373;SDS011;52070;53.760;9.678;2022-07-04T10:27:39;4.53;;;0.90;;
65373;SDS011;52070;53.760;9.678;2022-07-04T10:30:08;3.70;;;1.10;;
65373;SDS011;52070;53.760;9.678;2022-07-04T10:32:39;3.28;;;0.60;;
65373;SDS011;52070;53.760;9.678;2022-07-04T10:35:08;3.47;;;1.33;;
65373;SDS011;52070;53.760;9.678;2022-07-04T10:40:40;2.47;;;0.90;;
65373;SDS011;52070;53.760;9.678;2022-07-04T10:48:55;2.35;;;1.15;;
65373;SDS011;52070;53.760;9.678;2022-07-04T10:51:36;4.57;;;1.10;;
65373;SDS011;52070;53.760;9.678;2022-07-04T10:54:06;2.58;;;0.80;;
65373;SDS011;52070;53.760;9.678;2022-07-04T10:56:35;3.75;;;1.00;;
65373;SDS011;52070;53.760;9.678;2022-07-04T10:59:13;4.22;;;0.90;;
65373;SDS011;52070;53.760;9.678;2022-07-04T11:01:46;3.15;;;0.95;;
65373;SDS011;52070;53.760;9.678;2022-07-04T11:07:19;3.63;;;1.10;;
65373;SDS011;52070;53.760;9.678;2022-07-04T11:16:01;2.75;;;1.00;;
65373;SDS011;52070;53.760;9.678;2022-07-04T11:18:43;2.28;;;0.90;;
65373;SDS011;52070;53.760;9.678;2022-07-04T11:21:18;3.47;;;1.00;;
65373;SDS011;52070;53.760;9.678;2022-07-04T11:23:49;2.90;;;0.90;;
65373;SDS011;52070;53.760;9.678;2022-07-04T11:26:18;4.43;;;1.10;;
65373;SDS011;52070;53.760;9.678;2022-07-04T11:28:46;1.65;;;0.80;;
65373;SDS011;52070;53.760;9.678;2022-07-04T11:31:14;7.72;;;1.05;;
65373;SDS011;52070;53.760;9.678;2022-07-04T11:33:41;1.98;;;1.00;;
65373;SDS011;52070;53.760;9.678;2022-07-04T11:36:10;3.55;;;1.20;;
65373;SDS011;52070;53.760;9.678;2022-07-04T11:38:46;4.13;;;1.00;;
65373;SDS011;52070;53.760;9.678;2022-07-04T11:41:15;6.82;;;0.95;;
65373;SDS011;52070;53.760;9.678;2022-07-04T11:44:04;3.78;;;1.10;;
65373;SDS011;52070;53.760;9.678;2022-07-04T11:46:50;3.95;;;1.20;;
65373;SDS011;52070;53.760;9.678;2022-07-04T11:49:17;3.65;;;1.00;;
65373;SDS011;52070;53.760;9.678;2022-07-04T11:51:45;4.25;;;1.20;;
65373;SDS011;52070;53.760;9.678;2022-07-04T11:54:15;4.35;;;1.13;;
65373;SDS011;52070;53.760;9.678;2022-07-04T11:56:44;5.30;;;1.10;;
65373;SDS011;52070;53.760;9.678;2022-07-04T11:59:12;4.18;;;1.00;;
65373;SDS011;52070;53.760;9.678;2022-07-04T12:01:41;4.10;;;1.00;;
65373;SDS011;52070;53.760;9.678;2022-07-04T12:04:14;1.55;;;0.80;;
65373;SDS011;52070;53.760;9.678;2022-07-04T12:06:43;2.03;;;0.98;;
65373;SDS011;52070;53.760;9.678;2022-07-04T12:09:11;3.53;;;0.90;;
65373;SDS011;52070;53.760;9.678;2022-07-04T12:11:53;5.82;;;1.05;;
65373;SDS011;52070;53.760;9.678;2022-07-04T12:14:21;2.58;;;1.00;;
65373;SDS011;52070;53.760;9.678;2022-07-04T12:16:48;4.60;;;1.10;;
65373;SDS011;52070;53.760;9.678;2022-07-04T12:19:15;1.98;;;0.95;;
65373;SDS011;52070;53.760;9.678;2022-07-04T12:21:43;2.33;;;0.80;;
65373;SDS011;52070;53.760;9.678;2022-07-04T12:24:10;2.78;;;1.08;;
65373;SDS011;52070;53.760;9.678;2022-07-04T12:26:44;2.35;;;0.90;;
65373;SDS011;52070;53.760;9.678;2022-07-04T12:29:20;3.25;;;1.17;;
65373;SDS011;52070;53.760;9.678;2022-07-04T12:31:50;4.35;;;0.90;;
65373;SDS011;52070;53.760;9.678;2022-07-04T12:36:49;1.95;;;0.90;;
65373;SDS011;52070;53.760;9.678;2022-07-04T12:39:26;4.28;;;1.05;;
65373;SDS011;52070;53.760;9.678;2022-07-04T12:42:03;3.28;;;1.00;;
65373;SDS011;52070;53.760;9.678;2022-07-04T12:44:32;4.72;;;1.20;;
65373;SDS011;52070;53.760;9.678;2022-07-04T12:46:59;4.03;;;1.38;;
65373;SDS011;52070;53.760;9.678;2022-07-04T12:49:26;5.05;;;1.17;;
65373;SDS011;52070;53.760;9.678;2022-07-04T12:52:02;5.47;;;1.25;;
65373;SDS011;52070;53.760;9.678;2022-07-04T12:54:30;2.60;;;1.10;;
65373;SDS011;52070;53.760;9.678;2022-07-04T12:57:02;1.98;;;1.13;;
65373;SDS011;52070;53.760;9.678;2022-07-04T12:59:32;2.03;;;0.98;;
65373;SDS011;52070;53.760;9.678;2022-07-04T13:01:59;4.07;;;1.30;;
65373;SDS011;52070;53.760;9.678;2022-07-04T13:04:27;5.90;;;1.20;;
65373;SDS011;52070;53.760;9.678;2022-07-04T13:06:54;3.97;;;1.15;;
65373;SDS011;52070;53.760;9.678;2022-07-04T13:09:21;6.15;;;1.13;;
65373;SDS011;52070;53.760;9.678;2022-07-04T13:11:48;3.90;;;1.10;;
65373;SDS011;52070;53.760;9.678;2022-07-04T13:14:33;6.07;;;1.35;;
65373;SDS011;52070;53.760;9.678;2022-07-04T13:17:00;5.65;;;1.30;;
65373;SDS011;52070;53.760;9.678;2022-07-04T13:19:27;5.07;;;1.40;;
65373;SDS011;52070;53.760;9.678;2022-07-04T13:21:54;3.90;;;1.40;;
65373;SDS011;52070;53.760;9.678;2022-07-04T13:24:21;5.95;;;1.20;;
65373;SDS011;52070;53.760;9.678;2022-07-04T13:26:48;4.43;;;1.20;;
65373;SDS011;52070;53.760;9.678;2022-07-04T13:29:15;3.38;;;1.20;;
65373;SDS011;52070;53.760;9.678;2022-07-04T13:31:43;5.25;;;1.30;;
65373;SDS011;52070;53.760;9.678;2022-07-04T13:34:10;3.53;;;1.00;;
65373;SDS011;52070;53.760;9.678;2022-07-04T13:36:37;3.00;;;1.10;;
65373;SDS011;52070;53.760;9.678;2022-07-04T13:39:04;4.55;;;1.10;;
65373;SDS011;52070;53.760;9.678;2022-07-04T13:41:32;3.80;;;1.10;;
65373;SDS011;52070;53.760;9.678;2022-07-04T13:43:59;6.43;;;1.10;;
65373;SDS011;52070;53.760;9.678;2022-07-04T13:46:27;3.10;;;0.90;;
65373;SDS011;52070;53.760;9.678;2022-07-04T13:48:56;4.55;;;1.10;;
65373;SDS011;52070;53.760;9.678;2022-07-04T13:51:22;3.92;;;1.10;;
65373;SDS011;52070;53.760;9.678;2022-07-04T13:53:49;2.80;;;1.17;;
65373;SDS011;52070;53.760;9.678;2022-07-04T13:56:16;5.45;;;1.10;;
65373;SDS011;52070;53.760;9.678;2022-07-04T13:58:43;4.20;;;1.27;;
65373;SDS011;52070;53.760;9.678;2022-07-04T14:01:11;4.80;;;0.98;;
65373;SDS011;52070;53.760;9.678;2022-07-04T14:03:39;4.78;;;1.23;;
65373;SDS011;52070;53.760;9.678;2022-07-04T14:06:07;3.80;;;1.08;;
65373;SDS011;52070;53.760;9.678;2022-07-04T14:08:34;5.70;;;1.10;;
65373;SDS011;52070;53.760;9.678;2022-07-04T14:11:01;4.40;;;1.10;;
65373;SDS011;52070;53.760;9.678;2022-07-04T14:13:29;6.05;;;1.17;;
65373;SDS011;52070;53.760;9.678;2022-07-04T14:15:56;4.25;;;0.90;;
65373;SDS011;52070;53.760;9.678;2022-07-04T14:18:23;7.25;;;1.23;;
65373;SDS011;52070;53.760;9.678;2022-07-04T14:20:50;3.28;;;0.95;;
65373;SDS011;52070;53.760;9.678;2022-07-04T14:23:18;3.92;;;0.90;;
65373;SDS011;52070;53.760;9.678;2022-07-04T14:26:05;3.38;;;1.10;;
65373;SDS011;52070;53.760;9.678;2022-07-04T14:28:33;3.33;;;1.13;;
65373;SDS011;52070;53.760;9.678;2022-07-04T14:31:00;2.55;;;0.90;;
65373;SDS011;52070;53.760;9.678;2022-07-04T14:33:27;2.67;;;1.08;;
65373;SDS011;52070;53.760;9.678;2022-07-04T14:35:54;5.38;;;1.00;;
65373;SDS011;52070;53.760;9.678;2022-07-04T14:38:23;7.90;;;1.20;;
65373;SDS011;52070;53.760;9.678;2022-07-04T14:40:50;2.63;;;1.00;;
65373;SDS011;52070;53.760;9.678;2022-07-04T14:43:17;5.15;;;1.02;;
65373;SDS011;52070;53.760;9.678;2022-07-04T14:45:44;3.40;;;0.90;;
65373;SDS011;52070;53.760;9.678;2022-07-04T14:48:12;6.35;;;1.10;;
65373;SDS011;52070;53.760;9.678;2022-07-04T14:50:39;3.60;;;1.10;;
65373;SDS011;52070;53.760;9.678;2022-07-04T14:53:06;5.47;;;1.20;;
65373;SDS011;52070;53.760;9.678;2022-07-04T14:55:34;1.65;;;0.75;;
65373;SDS011;52070;53.760;9.678;2022-07-04T14:58:01;3.30;;;0.80;;
65373;SDS011;52070;53.760;9.678;2022-07-04T15:00:28;2.10;;;0.95;;
65373;SDS011;52070;53.760;9.678;2022-07-04T15:02:55;2.83;;;1.00;;
65373;SDS011;52070;53.760;9.678;2022-07-04T15:05:22;2.33;;;1.02;;
65373;SDS011;52070;53.760;9.678;2022-07-04T15:07:49;5.50;;;1.30;;
65373;SDS011;52070;53.760;9.678;2022-07-04T15:10:16;2.15;;;0.93;;
65373;SDS011;52070;53.760;9.678;2022-07-04T15:12:44;3.90;;;1.00;;